Garden Plain, Kansas
Current Conditions -  °F | °C
As of 6:39 AM on Sunday 21 Dec 2014 (Local Time) from KICT Reporting Station
Overcast Overcast  
Wind Chill: 34°   Ceiling: 900
Heat Index: 41°   Visibility: 9mi
Dew Point: 37°   Wind: 13mph
Humidity: 86%   Direction: 190°S
Pressure: 30"   Gusts: NA
Location:  37.66°N, 97.68°W
Report Text: KICT 211239Z 19011KT 9SM OVC009 05/03 A3000 RMK AO2 T00500028 $
Loading
Personal Weather Stations






























Interactive Weather Map New forecast layout! Learn more

10-Day Weather Forecast

Advertisements
Track Severe Weather on mobile